createdAt,value
2018-12-11T00:00:45.734Z,1011.12
2018-12-11T00:01:44.299Z,1011.09
2018-12-11T00:02:42.837Z,1011.17
2018-12-11T00:03:41.788Z,1011.13
2018-12-11T00:04:40.322Z,1011.09
2018-12-11T00:05:38.839Z,1011.06
2018-12-11T00:06:37.483Z,1011.06
2018-12-11T00:07:36.011Z,1011.05
2018-12-11T00:08:34.548Z,1011.01
2018-12-11T00:09:33.116Z,1011.05
2018-12-11T00:10:32.490Z,1011.06
2018-12-11T00:11:33.952Z,1011.03
2018-12-11T00:12:29.536Z,1011.06
2018-12-11T00:13:28.067Z,1011.07
2018-12-11T00:14:26.671Z,1011.08
2018-12-11T00:15:25.484Z,1011.06
2018-12-11T00:16:24.190Z,1011.1
2018-12-11T00:17:22.818Z,1011.17
2018-12-11T00:18:21.504Z,1011.15
2018-12-11T00:19:20.068Z,1011.16
2018-12-11T00:20:18.605Z,1011.15
2018-12-11T00:22:59.057Z,1011.13
2018-12-11T00:23:57.921Z,1011.2
2018-12-11T00:24:56.490Z,1011.15
2018-12-11T00:25:55.075Z,1011.19
2018-12-11T00:26:53.642Z,1011.16
2018-12-11T00:27:52.169Z,1011.19
2018-12-11T00:28:50.716Z,1011.17
2018-12-11T00:29:49.251Z,1011.18
2018-12-11T00:30:47.850Z,1011.17
2018-12-11T00:31:46.422Z,1011.15
2018-12-11T00:32:44.948Z,1011.16
2018-12-11T00:33:43.843Z,1011.17
2018-12-11T00:35:52.579Z,1011.17
2018-12-11T00:36:51.406Z,1011.22
2018-12-11T00:37:49.989Z,1011.22
2018-12-11T00:38:48.587Z,1011.17
2018-12-11T00:39:47.145Z,1011.2
2018-12-11T00:40:45.714Z,1011.22
2018-12-11T00:41:44.188Z,1011.23
2018-12-11T00:42:42.769Z,1011.29
2018-12-11T00:43:41.577Z,1011.21
2018-12-11T00:44:40.273Z,1011.22
2018-12-11T00:45:38.807Z,1011.19
2018-12-11T00:46:37.550Z,1011.2
2018-12-11T00:47:36.112Z,1011.2
2018-12-11T00:48:34.644Z,1011.23
2018-12-11T00:49:33.202Z,1011.16
2018-12-11T00:50:31.784Z,1011.14
2018-12-11T00:51:30.413Z,1011.12
2018-12-11T00:52:28.926Z,1011.13
2018-12-11T00:53:27.793Z,1011.18
2018-12-11T00:54:26.353Z,1011.17
2018-12-11T00:55:24.907Z,1011.16
2018-12-11T00:56:23.628Z,1011.19
2018-12-11T00:59:06.632Z,1011.15
2018-12-11T01:00:05.185Z,1011.14
2018-12-11T01:02:45.597Z,1011.18
2018-12-11T01:03:44.280Z,1011.17
2018-12-11T01:04:42.860Z,1011.18
2018-12-11T01:05:41.665Z,1011.17
2018-12-11T01:06:40.282Z,1011.18
2018-12-11T01:07:38.843Z,1011.14
2018-12-11T01:08:37.671Z,1011.06
2018-12-11T01:09:36.213Z,1011.08
2018-12-11T01:10:34.736Z,1011.02
2018-12-11T01:11:33.681Z,1011.07
2018-12-11T01:12:32.222Z,1011.04
2018-12-11T01:13:30.782Z,1011.07
2018-12-11T01:14:29.311Z,1011.06
2018-12-11T01:15:27.874Z,1011.08
2018-12-11T01:16:26.391Z,1011.18
2018-12-11T01:17:24.974Z,1011.18
2018-12-11T01:18:23.612Z,1011.14
2018-12-11T01:19:22.139Z,1011.2
2018-12-11T01:20:20.743Z,1011.24
2018-12-11T01:21:19.449Z,1011.18
2018-12-11T01:22:18.111Z,1011.19
2018-12-11T01:23:16.655Z,1011.21
2018-12-11T01:24:15.398Z,1011.2
2018-12-11T01:25:13.951Z,1011.18
2018-12-11T01:26:12.510Z,1011.22
2018-12-11T01:27:11.036Z,1011.13
2018-12-11T01:28:09.597Z,1011.23
2018-12-11T01:29:08.138Z,1011.23
2018-12-11T01:30:06.720Z,1011.25
2018-12-11T01:31:05.482Z,1011.29
2018-12-11T01:32:04.031Z,1011.21
2018-12-11T01:33:02.600Z,1011.21
2018-12-11T01:34:01.137Z,1011.24
2018-12-11T01:35:00.068Z,1011.22
2018-12-11T01:35:58.598Z,1011.26
2018-12-11T01:36:57.201Z,1011.28
2018-12-11T01:37:55.742Z,1011.31
2018-12-11T01:38:54.265Z,1011.26
2018-12-11T01:39:52.817Z,1011.27
2018-12-11T01:40:51.354Z,1011.31
2018-12-11T01:41:49.925Z,1011.29
2018-12-11T01:42:48.439Z,1011.35
2018-12-11T01:43:46.993Z,1011.31
2018-12-11T01:44:45.952Z,1011.38
2018-12-11T01:45:44.474Z,1011.28
2018-12-11T01:46:43.023Z,1011.34
2018-12-11T01:47:42.520Z,1011.28
2018-12-11T01:48:41.176Z,1011.3
2018-12-11T01:49:39.904Z,1011.3
2018-12-11T01:50:38.445Z,1011.28
2018-12-11T01:51:36.985Z,1011.34
2018-12-11T01:52:35.961Z,1011.31
2018-12-11T01:53:34.482Z,1011.32
2018-12-11T01:54:33.340Z,1011.37
2018-12-11T01:55:31.934Z,1011.34
2018-12-11T01:56:30.486Z,1011.39
2018-12-11T01:57:29.130Z,1011.31
2018-12-11T01:58:27.693Z,1011.36
2018-12-11T01:59:26.233Z,1011.3
2018-12-11T02:00:24.771Z,1011.33
2018-12-11T02:01:23.558Z,1011.28
2018-12-11T02:02:22.315Z,1011.25
2018-12-11T02:03:21.004Z,1011.29
2018-12-11T02:04:19.593Z,1011.23
2018-12-11T02:05:18.148Z,1011.26
2018-12-11T02:08:00.217Z,1011.27
2018-12-11T02:08:58.748Z,1011.24
2018-12-11T02:09:57.510Z,1011.27
2018-12-11T02:10:56.219Z,1011.29
2018-12-11T02:11:54.996Z,1011.29
2018-12-11T02:12:53.567Z,1011.29
2018-12-11T02:13:52.102Z,1011.28
2018-12-11T02:14:50.639Z,1011.26
2018-12-11T02:15:49.173Z,1011.29
2018-12-11T02:16:47.786Z,1011.26
2018-12-11T02:17:46.362Z,1011.25
2018-12-11T02:18:44.891Z,1011.25
2018-12-11T02:19:43.746Z,1011.19
2018-12-11T02:20:42.260Z,1011.19
2018-12-11T02:21:42.068Z,1011.2
2018-12-11T02:22:39.630Z,1011.21
2018-12-11T02:23:38.219Z,1011.2
2018-12-11T02:24:36.737Z,1011.19
2018-12-11T02:25:35.320Z,1011.21
2018-12-11T02:26:33.871Z,1011.26
2018-12-11T02:27:32.438Z,1011.21
2018-12-11T02:28:30.950Z,1011.26
2018-12-11T02:29:29.477Z,1011.24
2018-12-11T02:30:28.056Z,1011.27
2018-12-11T02:31:26.544Z,1011.21
2018-12-11T02:32:25.061Z,1011.23
2018-12-11T02:33:23.648Z,1011.21
2018-12-11T02:34:22.173Z,1011.22
2018-12-11T02:35:20.737Z,1011.2
2018-12-11T02:36:19.529Z,1011.18
2018-12-11T02:37:18.195Z,1011.17
2018-12-11T02:38:16.805Z,1011.22
2018-12-11T02:39:15.493Z,1011.22
2018-12-11T02:40:14.002Z,1011.2
2018-12-11T02:41:12.548Z,1011.23
2018-12-11T02:42:11.081Z,1011.23
2018-12-11T02:43:09.617Z,1011.23
2018-12-11T02:44:08.235Z,1011.24
2018-12-11T02:45:06.767Z,1011.2
2018-12-11T02:46:05.626Z,1011.19
2018-12-11T02:47:04.310Z,1011.23
2018-12-11T02:48:02.816Z,1011.19
2018-12-11T02:49:01.684Z,1011.22
2018-12-11T02:50:00.217Z,1011.24
2018-12-11T02:50:58.746Z,1011.18
2018-12-11T02:51:57.309Z,1011.24
2018-12-11T02:52:56.363Z,1011.21
2018-12-11T02:53:54.912Z,1011.25
2018-12-11T02:54:53.696Z,1011.26
2018-12-11T02:55:52.509Z,1011.22
2018-12-11T02:56:51.109Z,1011.24
2018-12-11T02:57:49.809Z,1011.3
2018-12-11T02:58:48.345Z,1011.28
2018-12-11T02:59:46.909Z,1011.3
2018-12-11T03:00:45.819Z,1011.29
2018-12-11T03:01:44.346Z,1011.26
2018-12-11T03:02:42.887Z,1011.27
2018-12-11T03:03:41.450Z,1011.22
2018-12-11T03:04:39.983Z,1011.24
2018-12-11T03:05:38.523Z,1011.24
2018-12-11T03:06:37.050Z,1011.29
2018-12-11T03:07:35.603Z,1011.28
2018-12-11T03:08:34.234Z,1011.31
2018-12-11T03:11:14.511Z,1011.36
2018-12-11T03:12:13.159Z,1011.33
2018-12-11T03:13:11.829Z,1011.39
2018-12-11T03:14:10.361Z,1011.37
2018-12-11T03:15:08.913Z,1011.34
2018-12-11T03:16:07.561Z,1011.32
2018-12-11T03:17:06.095Z,1011.27
2018-12-11T03:18:04.664Z,1011.22
2018-12-11T03:19:03.254Z,1011.22
2018-12-11T03:20:01.915Z,1011.29
2018-12-11T03:21:00.475Z,1011.26
2018-12-11T03:21:59.045Z,1011.23
2018-12-11T03:22:57.982Z,1011.22
2018-12-11T03:25:20.791Z,1011.21
2018-12-11T03:26:19.508Z,1011.23
2018-12-11T03:27:18.237Z,1011.23
2018-12-11T03:28:16.889Z,1011.2
2018-12-11T03:29:15.540Z,1011.15
2018-12-11T03:31:56.007Z,1011.21
2018-12-11T03:32:54.514Z,1011.23
2018-12-11T03:33:53.068Z,1011.26
2018-12-11T03:34:51.848Z,1011.27
2018-12-11T03:35:50.473Z,1011.26
2018-12-11T03:36:49.011Z,1011.27
2018-12-11T03:37:47.564Z,1011.28
2018-12-11T03:38:46.138Z,1011.25
2018-12-11T03:39:44.718Z,1011.29
2018-12-11T03:40:43.267Z,1011.3
2018-12-11T03:41:41.781Z,1011.32
2018-12-11T03:42:40.333Z,1011.27
2018-12-11T03:43:38.882Z,1011.22
2018-12-11T03:44:37.649Z,1011.22
2018-12-11T03:45:36.167Z,1011.23
2018-12-11T03:46:34.728Z,1011.24
2018-12-11T03:47:33.713Z,1011.27
2018-12-11T03:48:32.243Z,1011.2
2018-12-11T03:49:30.759Z,1011.22
2018-12-11T03:50:29.435Z,1011.18
2018-12-11T03:51:28.290Z,1011.23
2018-12-11T03:52:26.826Z,1011.24
2018-12-11T03:55:34.286Z,1011.23
2018-12-11T03:56:32.937Z,1011.2
2018-12-11T03:57:31.601Z,1011.18
2018-12-11T03:58:30.182Z,1011.15
2018-12-11T03:59:28.758Z,1011.2
2018-12-11T04:00:27.630Z,1011.23
2018-12-11T04:01:26.455Z,1011.23
2018-12-11T04:02:25.091Z,1011.21
2018-12-11T04:03:23.662Z,1011.23
2018-12-11T04:04:22.200Z,1011.24
2018-12-11T04:05:20.708Z,1011.22
2018-12-11T04:06:19.273Z,1011.21
2018-12-11T04:07:17.772Z,1011.21
2018-12-11T04:08:16.319Z,1011.25
2018-12-11T04:09:14.857Z,1011.17
2018-12-11T04:10:13.385Z,1011.19
2018-12-11T04:11:11.942Z,1011.2
2018-12-11T04:12:10.527Z,1011.21
2018-12-11T04:13:09.067Z,1011.2
2018-12-11T04:14:07.963Z,1011.18
2018-12-11T04:15:06.453Z,1011.15
2018-12-11T04:16:05.353Z,1011.14
2018-12-11T04:17:03.894Z,1011.14
2018-12-11T04:18:02.498Z,1011.13
2018-12-11T04:19:01.066Z,1011.08
2018-12-11T04:19:59.577Z,1011.14
2018-12-11T04:20:58.100Z,1011.13
2018-12-11T04:21:56.689Z,1011.13
2018-12-11T04:22:55.551Z,1011.16
2018-12-11T04:23:54.220Z,1011.11
2018-12-11T04:24:53.024Z,1011.18
2018-12-11T04:25:51.618Z,1011.16
2018-12-11T04:28:35.742Z,1011.08
2018-12-11T04:29:34.268Z,1011.1
2018-12-11T04:30:35.530Z,1011.04
2018-12-11T04:31:34.182Z,1011.07
2018-12-11T04:32:32.762Z,1011.13
2018-12-11T04:33:31.393Z,1011.13
2018-12-11T04:34:30.084Z,1011.18
2018-12-11T04:35:28.640Z,1011.18
2018-12-11T04:36:27.442Z,1011.16
2018-12-11T04:37:25.985Z,1011.21
2018-12-11T04:38:24.527Z,1011.17
2018-12-11T04:39:23.101Z,1011.24
2018-12-11T04:40:21.797Z,1011.22
2018-12-11T04:41:20.346Z,1011.22
2018-12-11T04:42:18.846Z,1011.21
2018-12-11T04:43:17.614Z,1011.22
2018-12-11T04:44:16.215Z,1011.23
2018-12-11T04:45:14.765Z,1011.2
2018-12-11T04:46:13.619Z,1011.21
2018-12-11T04:47:12.200Z,1011.19
2018-12-11T04:48:10.740Z,1011.15
2018-12-11T04:49:09.372Z,1011.22
2018-12-11T04:50:08.153Z,1011.24
2018-12-11T04:51:06.702Z,1011.17
2018-12-11T04:52:05.307Z,1011.16
2018-12-11T04:53:04.039Z,1011.2
2018-12-11T04:54:02.628Z,1011.17
2018-12-11T04:55:01.327Z,1011.2
2018-12-11T04:57:24.095Z,1011.2
2018-12-11T04:58:22.616Z,1011.21
2018-12-11T04:59:21.224Z,1011.28
2018-12-11T05:00:20.002Z,1011.28
2018-12-11T05:01:18.569Z,1011.29
2018-12-11T05:02:17.206Z,1011.29
2018-12-11T05:03:15.770Z,1011.27
2018-12-11T05:04:14.386Z,1011.29
2018-12-11T05:05:12.965Z,1011.27
2018-12-11T05:06:11.806Z,1011.31
2018-12-11T05:07:10.333Z,1011.36
2018-12-11T05:08:08.892Z,1011.33
2018-12-11T05:09:07.845Z,1011.36
2018-12-11T05:10:06.408Z,1011.38
2018-12-11T05:11:04.928Z,1011.38
2018-12-11T05:12:03.479Z,1011.31
2018-12-11T05:13:02.051Z,1011.3
2018-12-11T05:14:00.640Z,1011.27
2018-12-11T05:14:59.190Z,1011.3
2018-12-11T05:15:57.917Z,1011.31
2018-12-11T05:18:38.246Z,1011.23
2018-12-11T05:19:36.780Z,1011.24
2018-12-11T05:20:35.401Z,1011.22
2018-12-11T05:21:33.972Z,1011.19
2018-12-11T05:22:32.562Z,1011.2
2018-12-11T05:23:31.098Z,1011.12
2018-12-11T05:24:30.121Z,1011.18
2018-12-11T05:25:28.704Z,1011.18
2018-12-11T05:26:27.415Z,1011.17
2018-12-11T05:45:48.781Z,1011.24
2018-12-11T05:46:47.536Z,1011.27
2018-12-11T05:47:46.200Z,1011.22
2018-12-11T05:48:44.766Z,1011.22
2018-12-11T05:49:43.270Z,1011.26
2018-12-11T05:50:41.862Z,1011.24
2018-12-11T05:51:40.413Z,1011.28
2018-12-11T05:52:38.948Z,1011.31
2018-12-11T05:55:19.504Z,1011.34
2018-12-11T05:57:59.758Z,1011.34
2018-12-11T05:58:58.277Z,1011.32
2018-12-11T05:59:58.667Z,1011.3
2018-12-11T06:00:57.235Z,1011.3
2018-12-11T06:01:55.953Z,1011.3
2018-12-11T06:02:54.559Z,1011.34
2018-12-11T06:03:53.129Z,1011.31
2018-12-11T06:04:51.973Z,1011.29
2018-12-11T06:05:50.527Z,1011.3
2018-12-11T06:06:49.159Z,1011.36
2018-12-11T06:08:53.571Z,1011.34
2018-12-11T06:09:52.276Z,1011.33
2018-12-11T06:10:50.813Z,1011.31
2018-12-11T06:11:49.542Z,1011.38
2018-12-11T06:12:48.116Z,1011.34
2018-12-11T06:13:46.653Z,1011.38
2018-12-11T06:14:45.193Z,1011.36
2018-12-11T06:15:43.755Z,1011.4
2018-12-11T06:16:42.338Z,1011.35
2018-12-11T06:17:40.871Z,1011.35
2018-12-11T06:18:39.590Z,1011.31
2018-12-11T06:19:38.148Z,1011.3
2018-12-11T06:20:36.662Z,1011.3
2018-12-11T06:21:35.250Z,1011.33
2018-12-11T06:22:34.046Z,1011.31
2018-12-11T06:24:31.259Z,1011.31
2018-12-11T06:25:29.817Z,1011.31
2018-12-11T06:26:28.363Z,1011.31
2018-12-11T06:27:26.947Z,1011.29
2018-12-11T06:28:25.839Z,1011.32
2018-12-11T06:29:24.389Z,1011.28
2018-12-11T06:30:22.957Z,1011.29
2018-12-11T06:31:21.884Z,1011.31
2018-12-11T06:32:20.406Z,1011.23
2018-12-11T06:33:19.023Z,1011.26
2018-12-11T06:34:17.578Z,1011.23
2018-12-11T06:35:16.123Z,1011.15
2018-12-11T06:36:14.715Z,1011.25
2018-12-11T06:37:13.545Z,1011.23
2018-12-11T06:38:12.159Z,1011.18
2018-12-11T06:39:10.729Z,1011.16
2018-12-11T06:40:09.512Z,1011.2
2018-12-11T06:41:08.055Z,1011.15
2018-12-11T06:42:06.650Z,1011.21
2018-12-11T06:43:05.193Z,1011.23
2018-12-11T06:44:04.138Z,1011.24
2018-12-11T06:45:02.683Z,1011.32
2018-12-11T06:46:01.609Z,1011.4
2018-12-11T06:47:00.150Z,1011.4
2018-12-11T06:47:58.699Z,1011.37
2018-12-11T06:48:57.262Z,1011.32
2018-12-11T06:49:55.780Z,1011.37
2018-12-11T06:50:54.339Z,1011.34
2018-12-11T06:51:52.861Z,1011.38
2018-12-11T06:52:51.448Z,1011.37
2018-12-11T06:53:50.062Z,1011.34
2018-12-11T06:54:48.658Z,1011.34
2018-12-11T06:55:47.272Z,1011.37
2018-12-11T06:56:46.086Z,1011.36
2018-12-11T06:57:44.637Z,1011.36
2018-12-11T06:58:43.288Z,1011.37
2018-12-11T06:59:41.897Z,1011.37
2018-12-11T07:00:40.387Z,1011.33
2018-12-11T07:01:38.905Z,1011.36
2018-12-11T07:02:37.420Z,1011.3
2018-12-11T07:03:35.968Z,1011.32
2018-12-11T07:04:34.501Z,1011.26
2018-12-11T07:05:33.061Z,1011.24
2018-12-11T07:06:31.586Z,1011.28
2018-12-11T07:07:30.153Z,1011.31
2018-12-11T07:08:28.687Z,1011.32
2018-12-11T07:09:27.630Z,1011.44
2018-12-11T07:10:26.240Z,1011.41
2018-12-11T07:11:24.867Z,1011.36
2018-12-11T07:12:23.574Z,1011.42
2018-12-11T07:13:22.140Z,1011.37
2018-12-11T07:14:20.731Z,1011.42
2018-12-11T07:15:19.504Z,1011.46
2018-12-11T07:16:18.093Z,1011.47
2018-12-11T07:17:16.665Z,1011.46
2018-12-11T07:18:15.209Z,1011.47
2018-12-11T07:19:14.084Z,1011.48
2018-12-11T07:20:12.644Z,1011.52
2018-12-11T07:21:11.212Z,1011.55
2018-12-11T07:22:09.754Z,1011.55
2018-12-11T07:23:08.304Z,1011.57
2018-12-11T07:24:06.882Z,1011.59
2018-12-11T07:25:07.728Z,1011.59
2018-12-11T07:26:06.290Z,1011.52
2018-12-11T07:27:04.881Z,1011.57
2018-12-11T07:28:03.724Z,1011.61
2018-12-11T07:29:02.285Z,1011.61
2018-12-11T07:30:00.830Z,1011.64
2018-12-11T07:30:59.372Z,1011.62
2018-12-11T07:31:57.930Z,1011.64
2018-12-11T07:32:56.476Z,1011.67
2018-12-11T07:33:55.029Z,1011.65
2018-12-11T07:34:53.925Z,1011.65
2018-12-11T07:35:52.475Z,1011.65
2018-12-11T07:36:51.011Z,1011.68
2018-12-11T07:37:50.050Z,1011.69
2018-12-11T07:38:48.629Z,1011.62
2018-12-11T07:39:47.137Z,1011.66
2018-12-11T07:40:45.980Z,1011.61
2018-12-11T07:41:44.542Z,1011.62
2018-12-11T07:42:43.086Z,1011.6
2018-12-11T07:43:41.923Z,1011.62
2018-12-11T07:44:40.453Z,1011.65
2018-12-11T07:45:38.997Z,1011.74
2018-12-11T07:46:37.556Z,1011.7
2018-12-11T07:47:36.101Z,1011.69
2018-12-11T07:48:34.625Z,1011.71
2018-12-11T07:49:33.171Z,1011.73
2018-12-11T07:50:31.722Z,1011.69
2018-12-11T07:51:30.272Z,1011.73
2018-12-11T07:52:28.801Z,1011.73
2018-12-11T07:53:27.430Z,1011.78
2018-12-11T07:54:26.906Z,1011.83
2018-12-11T07:55:25.794Z,1011.71
2018-12-11T07:56:24.501Z,1011.71
2018-12-11T07:57:23.111Z,1011.7
2018-12-11T07:58:21.764Z,1011.68
2018-12-11T07:59:20.315Z,1011.69
2018-12-11T08:00:18.852Z,1011.75
2018-12-11T08:01:17.361Z,1011.75
2018-12-11T08:02:16.055Z,1011.73
2018-12-11T08:03:14.678Z,1011.74
2018-12-11T08:04:13.360Z,1011.74
2018-12-11T08:05:12.197Z,1011.74
2018-12-11T08:06:10.743Z,1011.77
2018-12-11T08:07:09.306Z,1011.77
2018-12-11T08:08:07.930Z,1011.74
2018-12-11T08:09:06.457Z,1011.7
2018-12-11T08:10:05.214Z,1011.71
2018-12-11T08:11:03.560Z,1011.68
2018-12-11T08:12:08.127Z,1011.72
2018-12-11T08:13:00.674Z,1011.68
2018-12-11T08:13:59.662Z,1011.75
2018-12-11T08:14:58.236Z,1011.74
2018-12-11T08:15:56.796Z,1011.75
2018-12-11T08:16:55.517Z,1011.75
2018-12-11T08:17:54.056Z,1011.73
2018-12-11T08:18:52.609Z,1011.73
2018-12-11T08:19:51.149Z,1011.76
2018-12-11T08:20:50.305Z,1011.71
2018-12-11T08:21:48.824Z,1011.72
2018-12-11T08:22:47.509Z,1011.71
2018-12-11T08:23:46.038Z,1011.76
2018-12-11T08:24:44.559Z,1011.74
2018-12-11T08:25:43.184Z,1011.68
2018-12-11T08:26:41.753Z,1011.65
2018-12-11T08:30:20.770Z,1011.72
2018-12-11T08:31:19.435Z,1011.68
2018-12-11T08:32:18.055Z,1011.69
2018-12-11T08:33:16.588Z,1011.69
2018-12-11T08:34:15.250Z,1011.72
2018-12-11T08:35:13.842Z,1011.71
2018-12-11T08:36:12.432Z,1011.73
2018-12-11T08:37:11.205Z,1011.73
2018-12-11T08:38:09.987Z,1011.72
2018-12-11T08:39:08.542Z,1011.8
2018-12-11T08:40:07.227Z,1011.77
2018-12-11T08:41:05.827Z,1011.77
2018-12-11T08:42:04.350Z,1011.77
2018-12-11T08:43:02.890Z,1011.77
2018-12-11T08:44:01.432Z,1011.78
2018-12-11T08:45:00.038Z,1011.8
2018-12-11T08:45:58.600Z,1011.82
2018-12-11T08:46:57.411Z,1011.8
2018-12-11T08:47:55.993Z,1011.82
2018-12-11T08:48:54.581Z,1011.77
2018-12-11T08:49:53.229Z,1011.77
2018-12-11T08:50:51.926Z,1011.77
2018-12-11T08:51:50.487Z,1011.76
2018-12-11T08:52:49.159Z,1011.74
2018-12-11T08:53:47.708Z,1011.81
2018-12-11T08:54:46.231Z,1011.69
2018-12-11T08:55:44.809Z,1011.81
2018-12-11T08:56:43.589Z,1011.81
2018-12-11T08:57:42.379Z,1011.78
2018-12-11T08:58:40.937Z,1011.82
2018-12-11T08:59:39.579Z,1011.86
2018-12-11T09:00:38.118Z,1011.83
2018-12-11T09:01:36.667Z,1011.81
2018-12-11T09:02:35.214Z,1011.78
2018-12-11T09:03:33.766Z,1011.79
2018-12-11T09:04:32.371Z,1011.78
2018-12-11T09:05:30.908Z,1011.81
2018-12-11T09:06:29.857Z,1011.78
2018-12-11T09:07:28.468Z,1011.79
2018-12-11T09:08:27.029Z,1011.78
2018-12-11T09:09:25.694Z,1011.82
2018-12-11T09:10:24.247Z,1011.88
2018-12-11T09:11:22.817Z,1011.87
2018-12-11T09:12:21.376Z,1011.92
2018-12-11T09:13:19.901Z,1011.9
2018-12-11T09:14:18.461Z,1011.86
2018-12-11T09:15:17.014Z,1011.91
2018-12-11T09:16:15.585Z,1011.9
2018-12-11T09:17:14.309Z,1011.86
2018-12-11T09:18:12.830Z,1011.82
2018-12-11T09:19:11.449Z,1011.82
2018-12-11T09:20:10.120Z,1011.8
2018-12-11T09:21:08.670Z,1011.77
2018-12-11T09:23:48.807Z,1011.76
2018-12-11T09:24:47.387Z,1011.84
2018-12-11T09:25:45.926Z,1011.81
2018-12-11T09:26:44.533Z,1011.82
2018-12-11T09:27:43.062Z,1011.81
2018-12-11T09:28:41.640Z,1011.78
2018-12-11T09:29:40.185Z,1011.81
2018-12-11T09:30:38.725Z,1011.85
2018-12-11T09:31:37.604Z,1011.83
2018-12-11T09:53:10.830Z,1011.82
2018-12-11T09:54:09.399Z,1011.84
2018-12-11T09:55:08.154Z,1011.81
2018-12-11T09:56:06.709Z,1011.78
2018-12-11T09:57:05.380Z,1011.85
2018-12-11T09:58:04.256Z,1011.81
2018-12-11T09:59:02.824Z,1011.84
2018-12-11T10:00:01.812Z,1011.83
2018-12-11T10:01:00.345Z,1011.84
2018-12-11T10:01:58.904Z,1011.87
2018-12-11T10:02:57.486Z,1011.82
2018-12-11T10:03:56.032Z,1011.83
2018-12-11T10:04:54.619Z,1011.81
2018-12-11T10:05:53.103Z,1011.89
2018-12-11T10:08:33.357Z,1011.85
2018-12-11T10:09:32.017Z,1011.89
2018-12-11T10:10:30.567Z,1011.96
2018-12-11T10:11:29.139Z,1011.95
2018-12-11T10:12:27.979Z,1011.91
2018-12-11T10:13:26.547Z,1011.95
2018-12-11T10:14:25.099Z,1011.93
2018-12-11T10:15:23.645Z,1011.83
2018-12-11T10:16:22.168Z,1011.92
2018-12-11T10:21:00.724Z,1011.88
2018-12-11T10:21:59.528Z,1011.97
2018-12-11T10:22:58.077Z,1011.94
2018-12-11T10:23:56.621Z,1011.94
2018-12-11T10:24:55.256Z,1011.92
2018-12-11T10:25:53.890Z,1011.92
2018-12-11T10:26:52.463Z,1011.91
2018-12-11T10:27:51.016Z,1011.9
2018-12-11T10:28:49.665Z,1011.9
2018-12-11T10:29:48.375Z,1011.89
2018-12-11T10:31:56.378Z,1011.85
2018-12-11T10:32:54.879Z,1011.9
2018-12-11T10:33:53.487Z,1011.89
2018-12-11T10:34:52.047Z,1011.83
2018-12-11T10:35:50.570Z,1011.84
2018-12-11T10:36:49.515Z,1011.86
2018-12-11T10:37:48.030Z,1011.92
2018-12-11T10:38:46.558Z,1011.86
2018-12-11T10:39:45.092Z,1011.87
2018-12-11T10:40:44.040Z,1011.87
2018-12-11T10:41:42.616Z,1011.87
2018-12-11T10:42:41.137Z,1011.8
2018-12-11T10:43:39.778Z,1011.81
2018-12-11T10:44:38.330Z,1011.79
2018-12-11T10:45:36.863Z,1011.72
2018-12-11T10:46:35.693Z,1011.74
2018-12-11T10:47:34.377Z,1011.77
2018-12-11T10:48:33.081Z,1011.79
2018-12-11T10:49:31.691Z,1011.74
2018-12-11T10:50:30.269Z,1011.74
2018-12-11T10:51:28.792Z,1011.77
2018-12-11T10:52:27.316Z,1011.75
2018-12-11T10:53:25.883Z,1011.75
2018-12-11T10:54:24.448Z,1011.75
2018-12-11T10:55:23.026Z,1011.78
2018-12-11T10:56:21.815Z,1011.76
2018-12-11T10:57:20.444Z,1011.73
2018-12-11T10:58:18.995Z,1011.71
2018-12-11T10:59:17.790Z,1011.64
2018-12-11T11:00:16.350Z,1011.63
2018-12-11T11:01:14.908Z,1011.68
2018-12-11T11:02:13.514Z,1011.67
2018-12-11T11:03:12.047Z,1011.64
2018-12-11T11:04:10.637Z,1011.64
2018-12-11T11:06:50.706Z,1011.64
2018-12-11T11:07:49.409Z,1011.58
2018-12-11T11:08:48.298Z,1011.61
2018-12-11T11:09:46.872Z,1011.6
2018-12-11T11:10:45.447Z,1011.61
2018-12-11T11:11:44.013Z,1011.57
2018-12-11T11:12:42.554Z,1011.49
2018-12-11T11:13:41.109Z,1011.48
2018-12-11T11:14:39.621Z,1011.44
2018-12-11T11:15:39.146Z,1011.48
2018-12-11T11:16:36.702Z,1011.47
2018-12-11T11:17:35.248Z,1011.43
2018-12-11T11:18:34.149Z,1011.44
2018-12-11T11:19:32.677Z,1011.4
2018-12-11T11:20:31.284Z,1011.42
2018-12-11T11:23:13.576Z,1011.32
2018-12-11T11:24:12.115Z,1011.31
2018-12-11T11:25:10.683Z,1011.35
2018-12-11T11:26:09.224Z,1011.29
2018-12-11T11:27:08.099Z,1011.27
2018-12-11T11:28:06.663Z,1011.3
2018-12-11T11:29:05.258Z,1011.29
2018-12-11T11:30:04.015Z,1011.3
2018-12-11T11:31:02.601Z,1011.28
2018-12-11T11:32:01.092Z,1011.28
2018-12-11T11:32:59.667Z,1011.29
2018-12-11T11:33:58.688Z,1011.23
2018-12-11T11:34:56.834Z,1011.26
2018-12-11T11:35:55.740Z,1011.21
2018-12-11T11:36:54.400Z,1011.25
2018-12-11T11:37:52.980Z,1011.26
2018-12-11T11:38:51.720Z,1011.27
2018-12-11T11:39:50.243Z,1011.21
2018-12-11T11:40:48.788Z,1011.22
2018-12-11T11:41:47.320Z,1011.18
2018-12-11T11:42:45.845Z,1011.18
2018-12-11T11:43:44.390Z,1011.14
2018-12-11T11:44:42.943Z,1011.14
2018-12-11T11:45:41.556Z,1011.1
2018-12-11T11:46:40.282Z,1011.12
2018-12-11T11:47:38.825Z,1011.08
2018-12-11T11:48:37.498Z,1011.11
2018-12-11T11:49:36.224Z,1011.07
2018-12-11T11:50:34.766Z,1011.07
2018-12-11T11:51:33.439Z,1011.07
2018-12-11T11:52:31.994Z,1011.09
2018-12-11T11:53:30.532Z,1011.12
2018-12-11T11:54:29.074Z,1011.05
2018-12-11T11:55:27.941Z,1011.04
2018-12-11T11:56:26.492Z,1011.02
2018-12-11T11:57:29.641Z,1011.01
2018-12-11T11:58:24.027Z,1011
2018-12-11T11:59:22.649Z,1011.03
2018-12-11T12:00:21.170Z,1011
2018-12-11T12:01:19.723Z,1010.96
2018-12-11T12:02:18.265Z,1010.98
2018-12-11T12:03:16.828Z,1011.01
2018-12-11T12:04:15.337Z,1011.03
2018-12-11T12:05:14.297Z,1011.04
2018-12-11T12:06:12.826Z,1011.02
2018-12-11T12:08:59.166Z,1011.04
2018-12-11T12:12:32.143Z,1011.08
2018-12-11T12:13:30.682Z,1011.05
2018-12-11T12:14:29.213Z,1011.06
2018-12-11T12:15:27.981Z,1011.06
2018-12-11T12:16:26.495Z,1011.01
2018-12-11T12:17:25.106Z,1010.99
2018-12-11T12:18:23.706Z,1010.97
2018-12-11T12:19:22.242Z,1011
2018-12-11T12:20:20.776Z,1010.97
2018-12-11T12:21:19.340Z,1011.01
2018-12-11T12:22:17.897Z,1011.05
2018-12-11T12:23:16.437Z,1010.97
2018-12-11T12:24:14.995Z,1011.03
2018-12-11T12:25:13.838Z,1010.98
2018-12-11T12:26:12.498Z,1011
2018-12-11T12:27:11.214Z,1011.06
2018-12-11T12:28:09.853Z,1010.98
2018-12-11T12:29:08.380Z,1011.01
2018-12-11T12:40:56.585Z,1011
2018-12-11T12:41:55.116Z,1010.93
2018-12-11T12:42:54.004Z,1010.95
2018-12-11T12:43:52.535Z,1010.99
2018-12-11T12:44:51.175Z,1010.96
2018-12-11T12:45:49.930Z,1010.95
2018-12-11T12:46:49.839Z,1010.98
2018-12-11T12:47:47.059Z,1011.01
2018-12-11T12:48:45.561Z,1010.93
2018-12-11T12:49:50.351Z,1010.95
2018-12-11T12:50:42.781Z,1011.02
2018-12-11T12:51:41.297Z,1010.98
2018-12-11T12:52:40.782Z,1011.01
2018-12-11T12:53:38.614Z,1010.99
2018-12-11T12:54:37.142Z,1011.01
2018-12-11T12:55:36.063Z,1011.01
2018-12-11T12:56:34.624Z,1010.98
2018-12-11T12:57:33.179Z,1010.97
2018-12-11T12:58:31.721Z,1010.91
2018-12-11T12:59:30.282Z,1010.87
2018-12-11T13:00:28.835Z,1010.92
2018-12-11T13:01:27.402Z,1010.88
2018-12-11T13:02:25.920Z,1010.93
2018-12-11T13:03:24.456Z,1010.94
2018-12-11T13:04:23.030Z,1010.9
2018-12-11T13:05:21.883Z,1010.96
2018-12-11T13:06:20.562Z,1010.98
2018-12-11T13:07:19.198Z,1010.93
2018-12-11T13:08:17.874Z,1010.92
2018-12-11T13:09:16.537Z,1010.93
2018-12-11T13:10:15.088Z,1010.88
2018-12-11T13:11:13.938Z,1010.9
2018-12-11T13:12:12.489Z,1010.88
2018-12-11T13:13:11.026Z,1010.89
2018-12-11T13:14:09.925Z,1010.87
2018-12-11T13:15:08.786Z,1010.82
2018-12-11T13:16:07.694Z,1010.81
2018-12-11T13:17:06.558Z,1010.85
2018-12-11T13:18:05.060Z,1010.89
2018-12-11T13:19:03.693Z,1010.85
2018-12-11T13:20:02.425Z,1010.85
2018-12-11T13:21:00.971Z,1010.86
2018-12-11T13:21:59.629Z,1010.88
2018-12-11T13:22:58.249Z,1010.83
2018-12-11T13:23:56.779Z,1010.84
2018-12-11T13:24:55.452Z,1010.95
2018-12-11T13:25:54.129Z,1010.96